Time;durP1;ratioP1;P1;durP2;ratioP2;P2;SDS_P1;SDS_P2;PMS_P1;PMS_P2;Temp;Humidity;BMP_temperature;BMP_pressure;BME280_temperature;BME280_humidity;BME280_pressure;Samples;Min_cycle;Max_cycle;Signal;HPM_P1;HPM_P2
2023/09/12 00:01:32;;;;;;;14.45;6.22;;;21.90;99.90;;;;;;5001183;28;20518;-71
2023/09/12 00:04:18;;;;;;;17.40;6.72;;;21.90;99.90;;;;;;4997864;28;20046;-71
2023/09/12 00:07:04;;;;;;;15.63;6.75;;;21.90;99.90;;;;;;4972712;28;20050;-72
2023/09/12 00:09:50;;;;;;;15.32;7.03;;;21.90;99.90;;;;;;4998383;28;20042;-71
2023/09/12 00:12:36;;;;;;;13.70;6.68;;;21.90;99.90;;;;;;4979358;28;20039;-71
2023/09/12 00:15:22;;;;;;;19.73;6.97;;;22.00;99.90;;;;;;4980736;28;20061;-72
2023/09/12 00:18:08;;;;;;;21.65;6.78;;;22.00;99.90;;;;;;4995315;28;20539;-71
2023/09/12 00:20:54;;;;;;;18.52;6.53;;;21.90;99.90;;;;;;5018257;28;20043;-72
2023/09/12 00:23:40;;;;;;;17.25;6.70;;;21.90;99.90;;;;;;5014332;28;20053;-72
2023/09/12 00:26:26;;;;;;;20.95;6.43;;;21.90;99.90;;;;;;5008640;28;20047;-72
2023/09/12 00:29:12;;;;;;;19.58;7.38;;;21.80;99.90;;;;;;5018149;28;20086;-72
2023/09/12 00:31:58;;;;;;;17.48;7.13;;;21.80;99.90;;;;;;5024160;28;20556;-72
2023/09/12 00:34:44;;;;;;;15.88;6.07;;;21.80;99.90;;;;;;5015514;28;20049;-72
2023/09/12 00:37:30;;;;;;;11.90;6.78;;;21.70;99.90;;;;;;5019539;28;20052;-72
2023/09/12 00:40:16;;;;;;;12.02;6.60;;;21.70;99.90;;;;;;5004201;28;20124;-72
2023/09/12 00:43:03;;;;;;;17.40;7.57;;;21.70;99.90;;;;;;5012744;28;20053;-71
2023/09/12 00:45:49;;;;;;;16.23;6.35;;;21.70;99.90;;;;;;5020787;28;20041;-72
2023/09/12 00:48:35;;;;;;;23.33;7.72;;;21.60;99.90;;;;;;5019238;28;20041;-71
2023/09/12 00:51:21;;;;;;;15.57;7.05;;;21.60;99.90;;;;;;5021294;28;20037;-72
2023/09/12 00:54:08;;;;;;;11.10;6.80;;;21.60;99.90;;;;;;5019129;28;20099;-71
2023/09/12 00:56:54;;;;;;;17.75;8.25;;;21.60;99.90;;;;;;4999351;28;20049;-72
2023/09/12 00:59:40;;;;;;;17.23;7.60;;;21.60;99.90;;;;;;5016813;28;20048;-71
2023/09/12 01:02:26;;;;;;;16.15;7.95;;;21.60;99.90;;;;;;5009733;28;20053;-71
2023/09/12 01:05:14;;;;;;;16.85;8.07;;;21.60;99.90;;;;;;5000293;28;20041;-71
2023/09/12 01:08:00;;;;;;;18.58;8.15;;;21.70;99.90;;;;;;4995637;28;20079;-71
2023/09/12 01:10:47;;;;;;;20.63;8.00;;;21.70;99.90;;;;;;4996528;28;20068;-71
2023/09/12 01:13:33;;;;;;;15.00;6.75;;;21.70;99.90;;;;;;5024283;28;20382;-72
2023/09/12 01:16:19;;;;;;;14.90;7.47;;;21.70;99.90;;;;;;5010799;28;20052;-71
2023/09/12 01:19:05;;;;;;;15.70;7.45;;;21.70;99.90;;;;;;5019156;28;20387;-71
2023/09/12 01:22:09;;;;;;;17.38;7.25;;;21.60;99.90;;;;;;5002638;28;20041;-71
2023/09/12 01:25:22;;;;;;;14.88;7.47;;;21.60;99.90;;;;;;5024370;28;20655;-71
2023/09/12 01:28:09;;;;;;;18.02;8.10;;;21.50;99.90;;;;;;5009902;28;20172;-71
2023/09/12 01:30:55;;;;;;;19.58;8.30;;;21.40;99.90;;;;;;4996942;28;20056;-71
2023/09/12 01:33:41;;;;;;;15.40;7.07;;;21.10;99.90;;;;;;4978589;28;20536;-71
2023/09/12 01:36:27;;;;;;;18.75;8.27;;;21.00;99.90;;;;;;5019098;28;20103;-71
2023/09/12 01:39:13;;;;;;;20.92;9.63;;;21.10;99.90;;;;;;5013246;28;21008;-71
2023/09/12 01:41:59;;;;;;;19.58;9.30;;;21.20;99.90;;;;;;5027486;28;20041;-71
2023/09/12 01:44:45;;;;;;;22.70;9.52;;;21.00;99.90;;;;;;5020882;28;20072;-72
2023/09/12 01:47:31;;;;;;;13.93;8.63;;;21.00;99.90;;;;;;5006936;28;20048;-71
2023/09/12 01:50:17;;;;;;;19.42;8.95;;;21.10;99.90;;;;;;5038465;28;20045;-71
2023/09/12 01:53:03;;;;;;;17.52;8.85;;;21.20;99.90;;;;;;4997918;28;20121;-72
2023/09/12 01:55:49;;;;;;;18.63;8.45;;;21.20;99.90;;;;;;5009091;28;20069;-71
2023/09/12 01:58:35;;;;;;;19.40;9.52;;;21.20;99.90;;;;;;5005535;28;20065;-71
2023/09/12 02:01:21;;;;;;;20.83;10.25;;;21.20;99.90;;;;;;5017576;28;20351;-71
2023/09/12 02:04:08;;;;;;;23.60;10.57;;;21.20;99.90;;;;;;5011034;28;20033;-71
2023/09/12 02:06:54;;;;;;;18.08;10.27;;;21.10;99.90;;;;;;5000004;28;20068;-71
2023/09/12 02:09:40;;;;;;;17.20;10.82;;;21.20;99.90;;;;;;4996042;28;20068;-71
2023/09/12 02:12:26;;;;;;;21.90;11.15;;;21.20;99.90;;;;;;5030735;28;20048;-71
2023/09/12 02:15:12;;;;;;;21.63;12.23;;;21.20;99.90;;;;;;4999095;28;20103;-71
2023/09/12 02:17:58;;;;;;;18.63;9.98;;;21.20;99.90;;;;;;5004703;28;20053;-71
2023/09/12 02:20:46;;;;;;;22.17;11.38;;;21.20;99.90;;;;;;5007781;28;20191;-71
2023/09/12 02:23:31;;;;;;;19.95;11.20;;;21.20;99.90;;;;;;5002072;28;20045;-71
2023/09/12 02:26:17;;;;;;;20.65;10.80;;;21.30;99.90;;;;;;5017041;28;20421;-72
2023/09/12 02:29:07;;;;;;;19.42;10.00;;;21.20;99.90;;;;;;5013563;28;20040;-71
2023/09/12 02:31:53;;;;;;;21.77;10.95;;;21.20;99.90;;;;;;4987549;28;20042;-72
2023/09/12 02:34:39;;;;;;;18.00;10.50;;;21.20;99.90;;;;;;5015094;28;20064;-72
2023/09/12 02:37:26;;;;;;;19.13;10.02;;;21.20;99.90;;;;;;4998554;28;20042;-72
2023/09/12 02:40:14;;;;;;;18.52;10.13;;;21.20;99.90;;;;;;5019392;28;20128;-72
2023/09/12 02:43:00;;;;;;;20.45;10.85;;;21.20;99.90;;;;;;5017086;28;20057;-72
2023/09/12 02:45:47;;;;;;;15.80;9.95;;;21.10;99.90;;;;;;5025725;28;20045;-72
2023/09/12 02:48:33;;;;;;;17.65;10.20;;;21.10;99.90;;;;;;5002789;28;20692;-72
2023/09/12 02:51:21;;;;;;;15.13;9.35;;;21.10;99.90;;;;;;5008186;28;20041;-72
2023/09/12 02:54:06;;;;;;;19.53;10.53;;;21.10;99.90;;;;;;5001973;28;20033;-72
2023/09/12 02:56:52;;;;;;;17.42;10.23;;;21.10;99.90;;;;;;5023170;28;20045;-71
2023/09/12 02:59:38;;;;;;;18.70;9.50;;;21.10;99.90;;;;;;5029715;28;20060;-71
2023/09/12 03:02:24;;;;;;;17.58;9.45;;;21.00;99.90;;;;;;5003928;28;20049;-71
2023/09/12 03:05:10;;;;;;;15.50;9.73;;;21.00;99.90;;;;;;5002643;28;20091;-71
2023/09/12 03:07:56;;;;;;;17.15;10.23;;;21.00;99.90;;;;;;5006173;28;20041;-71
2023/09/12 03:10:42;;;;;;;18.15;10.15;;;21.00;99.90;;;;;;5013673;28;20037;-71
2023/09/12 03:13:28;;;;;;;18.42;10.85;;;20.90;99.90;;;;;;5026324;28;20042;-71
2023/09/12 03:16:14;;;;;;;19.90;9.70;;;20.80;99.90;;;;;;5028934;28;20045;-71
2023/09/12 03:19:02;;;;;;;16.50;10.80;;;20.80;99.90;;;;;;5007998;28;20779;-71
2023/09/12 03:21:48;;;;;;;15.10;9.70;;;20.80;99.90;;;;;;4987302;28;20092;-71
2023/09/12 03:24:34;;;;;;;22.27;11.07;;;20.80;99.90;;;;;;5006411;28;20093;-71
2023/09/12 03:27:20;;;;;;;20.67;11.05;;;20.70;99.90;;;;;;5001521;28;20125;-71
2023/09/12 03:30:07;;;;;;;18.30;11.15;;;20.50;99.90;;;;;;5014958;28;20061;-71
2023/09/12 03:32:53;;;;;;;21.85;11.35;;;20.60;99.90;;;;;;5009568;28;20034;-72
2023/09/12 03:35:39;;;;;;;17.70;11.02;;;20.60;99.90;;;;;;5015680;28;20124;-71
2023/09/12 03:38:25;;;;;;;21.17;12.13;;;20.60;99.90;;;;;;5014224;28;20489;-71
2023/09/12 03:41:11;;;;;;;22.33;12.60;;;20.50;99.90;;;;;;5006454;28;20053;-71
2023/09/12 03:43:57;;;;;;;19.40;11.93;;;20.50;99.90;;;;;;5019061;28;20042;-71
2023/09/12 03:46:44;;;;;;;21.50;13.90;;;20.40;99.90;;;;;;4999106;28;20045;-71
2023/09/12 03:49:30;;;;;;;22.30;12.25;;;20.40;99.90;;;;;;5002259;28;20138;-71
2023/09/12 03:52:15;;;;;;;23.27;12.45;;;20.30;99.90;;;;;;5022261;28;20604;-72
2023/09/12 03:55:02;;;;;;;23.75;13.57;;;20.30;99.90;;;;;;5012902;28;20037;-72
2023/09/12 03:57:48;;;;;;;20.67;12.35;;;20.30;99.90;;;;;;5016944;28;20041;-72
2023/09/12 04:00:34;;;;;;;20.25;11.65;;;20.30;99.90;;;;;;4987290;28;20046;-72
2023/09/12 04:03:21;;;;;;;23.05;12.35;;;20.30;99.90;;;;;;5002665;28;20079;-72
2023/09/12 04:06:07;;;;;;;20.27;12.75;;;20.30;99.90;;;;;;5009760;28;20410;-72
2023/09/12 04:08:53;;;;;;;17.30;11.32;;;20.20;99.90;;;;;;5014181;28;20041;-72
2023/09/12 04:11:39;;;;;;;18.05;12.68;;;20.20;99.90;;;;;;4998843;28;20110;-72
2023/09/12 04:14:25;;;;;;;20.92;13.30;;;20.20;99.90;;;;;;5002871;28;20029;-72
2023/09/12 04:17:11;;;;;;;23.20;12.52;;;20.10;99.90;;;;;;5009323;28;20486;-72
2023/09/12 04:19:57;;;;;;;16.02;11.93;;;20.20;99.90;;;;;;5004797;28;20541;-71
2023/09/12 04:22:43;;;;;;;22.55;13.65;;;20.30;99.90;;;;;;5000617;28;20052;-71
2023/09/12 04:25:30;;;;;;;21.98;13.35;;;20.30;99.90;;;;;;4995811;28;20041;-71
2023/09/12 04:28:16;;;;;;;18.75;13.35;;;20.30;99.90;;;;;;5017480;28;20478;-71
2023/09/12 04:31:03;;;;;;;16.08;12.52;;;20.30;99.90;;;;;;5031969;28;20102;-71
2023/09/12 04:33:51;;;;;;;17.73;12.80;;;20.30;99.90;;;;;;5008770;28;20037;-71
2023/09/12 04:36:37;;;;;;;19.33;14.35;;;20.20;99.90;;;;;;5017808;28;20052;-71
2023/09/12 04:39:23;;;;;;;23.85;15.50;;;20.20;99.90;;;;;;5022798;28;20124;-71
2023/09/12 04:42:09;;;;;;;24.23;15.95;;;20.00;99.90;;;;;;5009643;28;20475;-72
2023/09/12 04:44:55;;;;;;;25.63;17.23;;;19.80;99.90;;;;;;5012888;28;20125;-71
2023/09/12 04:47:41;;;;;;;29.73;17.80;;;19.70;99.90;;;;;;4999221;28;20046;-71
2023/09/12 04:50:27;;;;;;;27.80;17.45;;;19.60;99.90;;;;;;5026828;28;20033;-71
2023/09/12 04:53:13;;;;;;;23.02;16.55;;;19.50;99.90;;;;;;5004855;28;20060;-72
2023/09/12 04:55:59;;;;;;;27.30;17.23;;;19.50;99.90;;;;;;4998041;28;20039;-71
2023/09/12 04:58:47;;;;;;;17.77;15.15;;;19.60;99.90;;;;;;5028317;28;20041;-72
2023/09/12 05:01:34;;;;;;;22.15;15.60;;;19.70;99.90;;;;;;5015652;28;20112;-72
2023/09/12 05:04:20;;;;;;;22.40;14.23;;;19.80;99.90;;;;;;5005465;28;20056;-72
2023/09/12 05:07:06;;;;;;;23.02;14.27;;;19.90;99.90;;;;;;5015920;28;20134;-72
2023/09/12 05:09:51;;;;;;;22.77;15.63;;;20.00;99.90;;;;;;4990268;28;20116;-72
2023/09/12 05:12:38;;;;;;;21.15;13.82;;;20.10;99.90;;;;;;5045312;28;20041;-73
2023/09/12 05:15:24;;;;;;;15.93;12.35;;;20.10;99.90;;;;;;5018937;28;20037;-73
2023/09/12 05:18:10;;;;;;;19.45;13.80;;;20.20;99.90;;;;;;5003217;28;20044;-73
2023/09/12 05:20:56;;;;;;;21.30;13.93;;;20.20;99.90;;;;;;5033980;28;20055;-73
2023/09/12 05:23:42;;;;;;;22.80;13.25;;;20.30;99.90;;;;;;5003685;28;20073;-73
2023/09/12 05:26:28;;;;;;;19.17;13.60;;;20.30;99.90;;;;;;4999727;28;20057;-73
2023/09/12 05:29:15;;;;;;;21.08;12.65;;;20.30;99.90;;;;;;5035395;28;20107;-73
2023/09/12 05:32:01;;;;;;;16.00;12.50;;;20.40;99.90;;;;;;5014843;28;20712;-73
2023/09/12 05:34:49;;;;;;;19.23;12.82;;;20.40;99.90;;;;;;5033256;28;20119;-73
2023/09/12 05:37:35;;;;;;;20.45;13.68;;;20.40;99.90;;;;;;5027461;28;20056;-76
2023/09/12 05:40:21;;;;;;;17.77;12.35;;;20.50;99.90;;;;;;5022208;28;20041;-76
2023/09/12 05:43:07;;;;;;;22.20;13.73;;;20.50;99.90;;;;;;5006084;28;20413;-73
2023/09/12 05:45:53;;;;;;;17.42;13.02;;;20.60;99.90;;;;;;5012479;28;20517;-73
2023/09/12 05:48:39;;;;;;;20.38;12.63;;;20.60;99.90;;;;;;5017853;28;20045;-73
2023/09/12 05:51:25;;;;;;;20.40;13.13;;;20.60;99.90;;;;;;5004539;28;20048;-72
2023/09/12 05:54:13;;;;;;;20.58;13.43;;;20.70;99.90;;;;;;5028182;28;20484;-72
2023/09/12 05:56:59;;;;;;;19.95;13.38;;;20.70;99.90;;;;;;5004564;28;20079;-73
2023/09/12 05:59:45;;;;;;;19.25;12.25;;;20.70;99.90;;;;;;5025233;28;20132;-73
2023/09/12 06:02:33;;;;;;;14.93;11.60;;;20.80;99.90;;;;;;5029744;28;20041;-73
2023/09/12 06:05:19;;;;;;;14.23;11.73;;;20.80;99.90;;;;;;5009291;28;20075;-73
2023/09/12 06:08:05;;;;;;;18.77;12.98;;;20.80;99.90;;;;;;5020753;28;20285;-73
2023/09/12 06:10:53;;;;;;;16.10;11.68;;;20.80;99.90;;;;;;5005255;28;20147;-73
2023/09/12 06:13:40;;;;;;;17.63;12.18;;;20.80;99.90;;;;;;5018012;28;20041;-73
2023/09/12 06:16:26;;;;;;;19.37;13.13;;;20.80;99.90;;;;;;5014608;28;20084;-73
2023/09/12 06:19:14;;;;;;;17.73;13.32;;;20.80;99.90;;;;;;5014462;28;20440;-72
2023/09/12 06:22:00;;;;;;;22.48;13.30;;;20.80;99.90;;;;;;5000442;28;20037;-72
2023/09/12 06:24:46;;;;;;;18.63;13.68;;;20.80;99.90;;;;;;4984394;28;20042;-73
2023/09/12 06:27:32;;;;;;;19.25;11.50;;;20.80;99.90;;;;;;5010585;28;20057;-72
2023/09/12 06:30:18;;;;;;;18.20;11.75;;;20.80;99.90;;;;;;5008959;28;20034;-73
2023/09/12 06:33:04;;;;;;;19.80;11.30;;;20.90;99.90;;;;;;4988555;28;20149;-73
2023/09/12 06:35:52;;;;;;;15.80;11.77;;;20.80;99.90;;;;;;4993686;28;20116;-73
2023/09/12 06:38:38;;;;;;;;;;;20.80;99.90;;;;;;4976140;28;20470;-72
2023/09/12 06:41:24;;;;;;;19.17;11.40;;;20.80;99.90;;;;;;4991024;28;19913;-72
2023/09/12 06:44:10;;;;;;;17.77;12.50;;;20.80;99.90;;;;;;4990211;28;20057;-72
2023/09/12 06:46:56;;;;;;;18.50;12.88;;;20.70;99.90;;;;;;5011988;28;20497;-72
2023/09/12 06:49:42;;;;;;;14.18;10.73;;;20.70;99.90;;;;;;4976860;28;20366;-72
2023/09/12 06:52:28;;;;;;;18.85;11.52;;;20.80;99.90;;;;;;5014795;28;20077;-72
2023/09/12 06:55:14;;;;;;;17.30;12.02;;;20.80;99.90;;;;;;4988556;28;20478;-72
2023/09/12 06:58:00;;;;;;;16.30;12.63;;;20.60;99.90;;;;;;5004569;28;20108;-72
2023/09/12 07:00:46;;;;;;;18.23;11.52;;;20.60;99.90;;;;;;4989361;28;20050;-72
2023/09/12 07:03:33;;;;;;;18.08;11.57;;;20.50;99.90;;;;;;4976161;28;20564;-72
2023/09/12 07:06:19;;;;;;;18.55;12.07;;;20.50;99.90;;;;;;5000930;28;20052;-72
2023/09/12 07:09:05;;;;;;;16.58;12.48;;;20.50;99.90;;;;;;4995869;28;20034;-72
2023/09/12 07:11:52;;;;;;;17.67;11.50;;;20.30;99.90;;;;;;4953381;28;20038;-72
2023/09/12 07:14:38;;;;;;;15.25;11.63;;;20.10;99.90;;;;;;4990375;28;20085;-69
2023/09/12 07:17:24;;;;;;;18.42;9.48;;;20.00;99.90;;;;;;5003120;28;20549;-69
2023/09/12 07:20:11;;;;;;;12.07;7.00;;;19.80;99.90;;;;;;5002527;28;20046;-69
2023/09/12 07:22:57;;;;;;;11.23;6.28;;;19.70;99.90;;;;;;5005501;28;20053;-70
2023/09/12 07:25:43;;;;;;;11.30;6.55;;;19.90;99.90;;;;;;4980692;28;20423;-69
2023/09/12 07:28:30;;;;;;;18.90;8.25;;;20.00;99.90;;;;;;4982293;28;20053;-69
2023/09/12 07:31:16;;;;;;;15.27;7.53;;;20.10;99.90;;;;;;5000912;28;20048;-69
2023/09/12 07:34:02;;;;;;;10.90;7.43;;;20.20;99.90;;;;;;4985235;28;20426;-69
2023/09/12 07:36:48;;;;;;;14.75;8.05;;;20.20;99.90;;;;;;4988900;28;20057;-69
2023/09/12 07:39:34;;;;;;;13.02;7.90;;;20.20;99.90;;;;;;4979605;28;20385;-69
2023/09/12 07:42:23;;;;;;;15.48;7.63;;;20.20;99.90;;;;;;5000353;28;20042;-69
2023/09/12 07:45:10;;;;;;;12.27;7.60;;;20.30;99.90;;;;;;4976541;28;20125;-69
2023/09/12 07:47:56;;;;;;;11.50;7.20;;;20.30;99.90;;;;;;4997688;28;20088;-69
2023/09/12 07:50:42;;;;;;;11.50;7.57;;;20.40;99.90;;;;;;4979134;28;20039;-69
2023/09/12 07:53:29;;;;;;;15.13;8.18;;;20.50;99.90;;;;;;4987087;28;20104;-69
2023/09/12 07:56:15;;;;;;;9.90;7.43;;;20.40;99.90;;;;;;5000609;28;20038;-69
2023/09/12 07:59:01;;;;;;;10.30;7.57;;;20.50;99.90;;;;;;4965002;28;20045;-69
2023/09/12 08:01:47;;;;;;;14.10;7.38;;;20.50;99.90;;;;;;5002238;28;20123;-69
2023/09/12 08:04:33;;;;;;;9.18;6.38;;;20.60;99.90;;;;;;4980990;28;20074;-69
2023/09/12 08:07:20;;;;;;;7.07;5.65;;;20.60;99.90;;;;;;4980404;28;20045;-69
2023/09/12 08:10:06;;;;;;;9.75;6.25;;;20.70;99.90;;;;;;4970491;28;20140;-69
2023/09/12 08:12:52;;;;;;;7.43;6.03;;;20.70;99.90;;;;;;4998935;28;20033;-69
2023/09/12 08:15:38;;;;;;;10.98;7.00;;;20.70;99.90;;;;;;5003657;28;20077;-69
2023/09/12 08:18:26;;;;;;;10.27;6.82;;;20.70;99.90;;;;;;5033329;28;20056;-69
2023/09/12 08:21:12;;;;;;;8.73;5.72;;;20.80;99.90;;;;;;5027663;28;20338;-69
2023/09/12 08:23:58;;;;;;;8.15;5.65;;;20.80;99.90;;;;;;5007474;28;20049;-69
2023/09/12 08:26:44;;;;;;;8.30;5.10;;;20.80;99.90;;;;;;4996690;28;20041;-69
2023/09/12 08:29:33;;;;;;;8.00;5.78;;;20.80;99.90;;;;;;5035458;28;20048;-69
2023/09/12 08:32:20;;;;;;;8.98;5.00;;;20.90;99.90;;;;;;5007517;28;20036;-69
2023/09/12 08:35:06;;;;;;;9.23;4.53;;;20.90;99.90;;;;;;5027027;28;20052;-69
2023/09/12 08:37:53;;;;;;;7.05;4.60;;;21.00;99.90;;;;;;4993936;28;20376;-69
2023/09/12 08:40:39;;;;;;;8.68;4.50;;;21.00;99.90;;;;;;5013854;28;20102;-69
2023/09/12 08:43:25;;;;;;;7.50;4.47;;;21.00;99.90;;;;;;5024755;28;20069;-69
2023/09/12 08:46:12;;;;;;;5.95;4.68;;;21.00;99.90;;;;;;4994217;28;20041;-70
2023/09/12 08:48:58;;;;;;;6.95;4.60;;;21.10;99.90;;;;;;4996065;28;20870;-70
2023/09/12 08:51:44;;;;;;;7.03;4.53;;;21.10;99.90;;;;;;5005818;28;20041;-70
2023/09/12 08:54:31;;;;;;;7.45;5.00;;;21.00;99.90;;;;;;4984553;28;20064;-70
2023/09/12 08:57:17;;;;;;;6.93;4.30;;;21.00;99.90;;;;;;5019466;28;20049;-70
2023/09/12 09:00:08;;;;;;;6.75;4.43;;;21.10;99.90;;;;;;4999794;28;20036;-70
2023/09/12 09:02:55;;;;;;;7.60;4.05;;;21.10;99.90;;;;;;5006942;28;20488;-70
2023/09/12 09:05:43;;;;;;;7.80;3.80;;;21.10;99.90;;;;;;5011211;28;20370;-69
2023/09/12 09:08:29;;;;;;;7.80;3.95;;;21.20;99.90;;;;;;5014500;28;20132;-69
2023/09/12 09:11:15;;;;;;;8.18;3.92;;;21.20;99.90;;;;;;5007779;28;20595;-69
2023/09/12 09:14:04;;;;;;;5.72;4.50;;;21.20;99.90;;;;;;4992300;28;20045;-69
2023/09/12 09:16:50;;;;;;;9.65;4.43;;;21.30;99.90;;;;;;5008138;28;20056;-69
2023/09/12 09:19:44;;;;;;;9.07;5.32;;;21.20;99.90;;;;;;4975036;28;20115;-69
2023/09/12 09:22:30;;;;;;;9.50;5.80;;;21.20;99.90;;;;;;4997633;28;20053;-71
2023/09/12 09:25:17;;;;;;;6.60;5.55;;;21.00;99.90;;;;;;5019167;28;20040;-70
2023/09/12 09:28:04;;;;;;;14.68;6.47;;;20.70;99.90;;;;;;5039399;28;20060;-70
2023/09/12 09:30:51;;;;;;;9.85;6.40;;;20.70;99.90;;;;;;5010926;28;20036;-69
2023/09/12 09:33:38;;;;;;;11.98;8.05;;;20.50;99.90;;;;;;5014781;28;20068;-69
2023/09/12 09:36:24;;;;;;;10.07;7.45;;;20.40;99.90;;;;;;5017801;28;20041;-70
2023/09/12 09:39:11;;;;;;;10.98;7.47;;;20.50;99.90;;;;;;5020901;28;20505;-69
2023/09/12 09:41:57;;;;;;;10.32;6.90;;;20.50;99.90;;;;;;5016915;28;20040;-69
2023/09/12 09:44:43;;;;;;;7.75;6.40;;;20.50;99.90;;;;;;5020780;28;20841;-69
2023/09/12 09:47:29;;;;;;;11.02;6.80;;;20.50;99.90;;;;;;5003717;28;20045;-70
2023/09/12 09:50:15;;;;;;;8.65;6.68;;;20.40;99.90;;;;;;5017891;28;20366;-70
2023/09/12 09:53:01;;;;;;;10.27;6.40;;;20.50;99.90;;;;;;4976024;28;20505;-70
2023/09/12 09:55:47;;;;;;;10.05;6.57;;;20.60;99.90;;;;;;5028171;28;20072;-70
2023/09/12 09:58:33;;;;;;;7.65;6.47;;;20.50;99.90;;;;;;5035587;28;20047;-69
2023/09/12 10:01:21;;;;;;;6.93;5.45;;;20.40;99.90;;;;;;5023511;28;20049;-70
2023/09/12 10:04:07;;;;;;;9.75;5.60;;;20.50;99.90;;;;;;5007701;28;20041;-69
2023/09/12 10:06:53;;;;;;;6.25;4.97;;;20.60;99.90;;;;;;4996251;28;20112;-71
2023/09/12 10:09:39;;;;;;;6.55;4.63;;;20.80;99.90;;;;;;5007008;28;20041;-69
2023/09/12 10:12:25;;;;;;;5.00;3.28;;;20.90;99.90;;;;;;5003364;28;20038;-69
2023/09/12 10:15:11;;;;;;;6.00;4.00;;;21.10;99.90;;;;;;4999912;28;20105;-70
2023/09/12 10:17:59;;;;;;;7.47;3.78;;;21.20;99.90;;;;;;4995250;28;20133;-69
2023/09/12 10:21:03;;;;;;;7.07;4.38;;;21.40;99.90;;;;;;5011177;28;20092;-69
2023/09/12 10:23:50;;;;;;;6.45;3.65;;;21.40;99.90;;;;;;4980329;28;20136;-68
2023/09/12 10:26:36;;;;;;;5.25;3.88;;;21.50;99.90;;;;;;5001734;28;20133;-71
2023/09/12 10:29:24;;;;;;;6.85;4.20;;;21.60;99.90;;;;;;4991113;28;20156;-71
2023/09/12 10:32:12;;;;;;;5.63;4.30;;;21.60;99.90;;;;;;4991531;28;20124;-71
2023/09/12 10:34:58;;;;;;;7.75;4.75;;;21.60;99.90;;;;;;5011290;28;20040;-71
2023/09/12 10:37:45;;;;;;;6.20;5.00;;;21.50;99.90;;;;;;5004797;28;20046;-70
2023/09/12 10:40:31;;;;;;;8.13;5.72;;;21.50;99.90;;;;;;5004630;28;20145;-70
2023/09/12 10:43:17;;;;;;;8.40;5.43;;;21.60;99.90;;;;;;5003576;28;20041;-70
2023/09/12 10:46:03;;;;;;;8.48;5.57;;;21.70;99.90;;;;;;5012923;28;20045;-70
2023/09/12 10:48:50;;;;;;;5.68;4.30;;;21.70;99.90;;;;;;4994315;28;20444;-70
2023/09/12 10:51:43;;;;;;;5.80;3.90;;;21.80;99.90;;;;;;5009869;28;20041;-70
2023/09/12 10:54:41;;;;;;;5.97;4.00;;;21.70;99.90;;;;;;5012169;28;20042;-70
2023/09/12 10:57:27;;;;;;;5.03;3.90;;;21.70;99.90;;;;;;5003624;28;20319;-70
2023/09/12 11:00:14;;;;;;;6.38;4.20;;;21.70;99.90;;;;;;5050512;28;20051;-70
2023/09/12 11:03:26;;;;;;;6.20;3.97;;;21.70;99.90;;;;;;5020376;28;20160;-70
2023/09/12 11:06:30;;;;;;;5.63;4.30;;;21.80;99.90;;;;;;5023012;28;20099;-70
2023/09/12 11:09:23;;;;;;;6.68;4.60;;;21.70;99.90;;;;;;4978612;28;20038;-70
2023/09/12 11:12:09;;;;;;;6.65;4.22;;;21.70;99.90;;;;;;5008824;28;20041;-70
2023/09/12 11:15:06;;;;;;;6.90;4.25;;;21.80;99.90;;;;;;4995433;28;20041;-70
2023/09/12 11:18:04;;;;;;;7.47;4.57;;;21.90;99.90;;;;;;4992118;28;20750;-70
2023/09/12 11:20:53;;;;;;;6.80;4.00;;;22.00;99.90;;;;;;5011661;28;20042;-70
2023/09/12 11:23:39;;;;;;;;;;;22.30;99.90;;;;;;5002818;28;20503;-70
2023/09/12 11:26:25;;;;;;;5.28;3.80;;;22.60;99.90;;;;;;5016188;28;20003;-71
2023/09/12 11:29:14;;;;;;;5.40;4.18;;;22.90;99.90;;;;;;5014911;28;20047;-70
2023/09/12 11:32:00;;;;;;;5.25;3.80;;;23.10;99.90;;;;;;4995181;28;20548;-70
2023/09/12 11:34:46;;;;;;;6.47;4.20;;;23.10;99.90;;;;;;4991003;28;20079;-70
2023/09/12 11:37:33;;;;;;;10.13;4.00;;;22.90;99.90;;;;;;4976978;28;20636;-70
2023/09/12 11:40:41;;;;;;;6.72;4.57;;;22.70;99.90;;;;;;5013248;28;20053;-70
2023/09/12 11:43:27;;;;;;;6.55;4.45;;;22.70;99.90;;;;;;5008059;28;20040;-70
2023/09/12 11:46:13;;;;;;;12.20;4.82;;;22.80;99.90;;;;;;5028603;28;20045;-70
2023/09/12 11:49:01;;;;;;;7.38;4.68;;;22.90;99.90;;;;;;5001856;28;20096;-70
2023/09/12 11:51:55;;;;;;;7.05;4.82;;;22.90;99.90;;;;;;4999642;28;20056;-70
2023/09/12 11:54:41;;;;;;;8.70;5.00;;;22.90;99.90;;;;;;5021414;28;20041;-70
2023/09/12 11:57:27;;;;;;;9.32;5.75;;;22.90;99.90;;;;;;5016791;28;20053;-70
2023/09/12 12:00:14;;;;;;;9.73;5.88;;;23.00;99.90;;;;;;5005327;28;20511;-70
2023/09/12 12:03:01;;;;;;;8.60;5.47;;;22.90;99.90;;;;;;4982055;28;20053;-70
2023/09/12 12:05:47;;;;;;;9.43;5.82;;;22.90;99.90;;;;;;5015881;28;20040;-70
2023/09/12 12:08:33;;;;;;;9.25;5.90;;;22.90;99.90;;;;;;5016131;28;20196;-70
2023/09/12 12:11:19;;;;;;;9.38;6.75;;;22.80;99.90;;;;;;5010168;28;20044;-70
2023/09/12 12:14:19;;;;;;;9.82;6.53;;;22.80;99.90;;;;;;5005343;28;20091;-70
2023/09/12 12:17:08;;;;;;;10.82;7.03;;;22.70;99.90;;;;;;4996384;28;20050;-70
2023/09/12 12:19:54;;;;;;;10.52;6.55;;;22.70;99.90;;;;;;4990927;28;20054;-70
2023/09/12 12:22:40;;;;;;;12.23;7.53;;;22.60;99.90;;;;;;4966671;28;20177;-70
2023/09/12 12:25:26;;;;;;;13.32;8.02;;;22.60;99.90;;;;;;5000596;28;20056;-70
2023/09/12 12:28:12;;;;;;;11.52;7.97;;;22.50;99.90;;;;;;4989656;28;20050;-70
2023/09/12 12:30:58;;;;;;;11.77;8.73;;;22.40;99.90;;;;;;4999198;28;20092;-69
2023/09/12 12:33:49;;;;;;;11.10;6.22;;;22.30;99.90;;;;;;5014769;28;20033;-70
2023/09/12 12:36:42;;;;;;;12.40;6.82;;;22.30;99.90;;;;;;4990544;28;20085;-70
2023/09/12 12:39:28;;;;;;;8.90;6.35;;;22.20;99.90;;;;;;4987694;28;20386;-70
2023/09/12 12:42:14;;;;;;;8.50;6.10;;;22.20;99.90;;;;;;4969287;28;20042;-70
2023/09/12 12:45:00;;;;;;;12.75;5.53;;;22.20;99.90;;;;;;4997016;28;20057;-70
2023/09/12 12:47:59;;;;;;;6.93;4.45;;;22.30;99.90;;;;;;4999043;28;20053;-70
2023/09/12 12:50:45;;;;;;;7.35;5.18;;;22.30;99.90;;;;;;4999676;28;20355;-70
2023/09/12 12:53:41;;;;;;;5.43;4.35;;;22.30;99.90;;;;;;4987630;28;20093;-70
2023/09/12 12:56:27;;;;;;;6.80;4.88;;;22.30;99.90;;;;;;5017840;28;20077;-70
2023/09/12 12:59:13;;;;;;;7.43;5.80;;;22.40;99.90;;;;;;5001721;28;20152;-70
2023/09/12 13:01:59;;;;;;;10.20;5.20;;;22.30;99.90;;;;;;4971273;28;20125;-70
2023/09/12 13:04:45;;;;;;;7.25;5.70;;;22.50;99.90;;;;;;4999355;28;20065;-70
2023/09/12 13:07:31;;;;;;;6.57;4.75;;;22.70;99.90;;;;;;5005923;28;20128;-70
2023/09/12 13:10:21;;;;;;;6.53;4.90;;;22.90;99.90;;;;;;4980932;28;20030;-70
2023/09/12 13:13:07;;;;;;;7.50;4.55;;;23.10;99.90;;;;;;5008741;28;20038;-70
2023/09/12 13:15:52;;;;;;;6.70;4.50;;;23.30;99.90;;;;;;5020398;28;20553;-70
2023/09/12 13:18:39;;;;;;;7.13;4.50;;;23.30;99.90;;;;;;5010885;28;20060;-70
2023/09/12 13:21:25;;;;;;;7.75;4.70;;;23.30;99.90;;;;;;5012976;28;20107;-70
2023/09/12 13:24:11;;;;;;;6.28;4.57;;;23.30;99.90;;;;;;5016502;28;20365;-70
2023/09/12 13:26:57;;;;;;;7.03;5.25;;;23.30;99.90;;;;;;5020324;28;20111;-70
2023/09/12 13:29:43;;;;;;;9.52;5.28;;;23.30;99.90;;;;;;5011501;28;20079;-70
2023/09/12 13:32:29;;;;;;;8.65;6.18;;;23.30;99.90;;;;;;5024250;28;20045;-70
2023/09/12 13:35:15;;;;;;;7.22;5.53;;;23.10;99.90;;;;;;4997372;28;20041;-70
2023/09/12 13:38:02;;;;;;;8.02;6.03;;;23.10;99.90;;;;;;5006900;28;20054;-70
2023/09/12 13:40:48;;;;;;;7.45;5.60;;;23.10;99.90;;;;;;5005070;28;20718;-70
2023/09/12 13:43:34;;;;;;;7.00;5.18;;;23.10;99.90;;;;;;5029614;28;20124;-70
2023/09/12 13:46:20;;;;;;;7.18;5.57;;;23.40;99.90;;;;;;5017408;28;20052;-70
2023/09/12 13:49:09;;;;;;;6.38;4.85;;;23.80;99.90;;;;;;5034135;28;20037;-70
2023/09/12 13:51:56;;;;;;;8.32;5.07;;;24.10;99.90;;;;;;5008263;28;20037;-70
2023/09/12 13:54:42;;;;;;;6.35;4.35;;;24.50;99.90;;;;;;5022076;28;20448;-71
2023/09/12 13:57:28;;;;;;;8.70;4.53;;;24.90;99.90;;;;;;5041910;28;20068;-71
2023/09/12 14:00:14;;;;;;;4.88;3.92;;;25.20;99.90;;;;;;5015645;28;20072;-73
2023/09/12 14:03:00;;;;;;;5.65;4.00;;;25.50;99.90;;;;;;5023443;28;20102;-70
2023/09/12 14:05:46;;;;;;;6.97;4.00;;;25.90;99.90;;;;;;5024613;28;20461;-70
2023/09/12 14:08:33;;;;;;;5.15;4.03;;;25.80;99.90;;;;;;5020947;28;20094;-70
2023/09/12 14:11:19;;;;;;;8.38;4.40;;;25.80;99.90;;;;;;5016334;28;20049;-70
2023/09/12 14:14:05;;;;;;;6.63;3.92;;;25.90;99.90;;;;;;4993249;28;20528;-70
2023/09/12 14:16:51;;;;;;;4.80;4.00;;;25.80;99.90;;;;;;5000559;28;20069;-70
2023/09/12 14:19:38;;;;;;;6.10;3.88;;;25.80;99.90;;;;;;4997751;28;20517;-70